createdAt,value
2022-09-07T00:01:11.699Z,6.23
2022-09-07T00:03:39.365Z,6.14
2022-09-07T00:06:12.884Z,6.43
2022-09-07T00:08:43.816Z,6.20
2022-09-07T00:11:17.434Z,6.44
2022-09-07T00:13:48.143Z,6.01
2022-09-07T00:16:23.910Z,6.01
2022-09-07T00:18:55.869Z,5.96
2022-09-07T00:21:24.492Z,6.23
2022-09-07T00:23:53.184Z,6.20
2022-09-07T00:26:25.587Z,6.13
2022-09-07T00:28:58.422Z,6.02
2022-09-07T00:31:27.684Z,6.38
2022-09-07T00:34:00.188Z,5.64
2022-09-07T00:36:29.487Z,5.83
2022-09-07T00:38:57.791Z,5.67
2022-09-07T00:41:25.859Z,5.52
2022-09-07T00:43:58.426Z,5.47
2022-09-07T00:46:36.624Z,5.59
2022-09-07T00:49:18.354Z,5.91
2022-09-07T00:52:04.887Z,5.69
2022-09-07T00:54:44.145Z,5.98
2022-09-07T00:57:12.944Z,5.66
2022-09-07T00:59:50.081Z,5.88
2022-09-07T01:02:20.354Z,6.06
2022-09-07T01:05:08.795Z,5.54
2022-09-07T01:07:37.788Z,5.17
2022-09-07T01:10:07.792Z,5.61
2022-09-07T01:12:35.352Z,5.81
2022-09-07T01:15:04.784Z,5.82
2022-09-07T01:17:56.443Z,5.82
2022-09-07T01:20:45.938Z,5.84
2022-09-07T01:23:34.599Z,5.52
2022-09-07T01:26:39.449Z,5.37
2022-09-07T01:29:46.419Z,5.46
2022-09-07T01:33:07.752Z,5.59
2022-09-07T01:36:11.679Z,5.56
2022-09-07T01:38:54.317Z,5.42
2022-09-07T01:41:42.991Z,5.33
2022-09-07T01:44:42.201Z,5.66
2022-09-07T01:47:53.524Z,5.53
2022-09-07T01:50:58.401Z,5.57
2022-09-07T01:53:39.248Z,5.52
2022-09-07T01:56:21.882Z,5.53
2022-09-07T01:58:57.833Z,5.23
2022-09-07T02:01:33.412Z,5.47
2022-09-07T02:04:25.558Z,5.24
2022-09-07T02:07:00.366Z,5.05
2022-09-07T02:10:03.257Z,5.24
2022-09-07T02:12:55.514Z,4.69
2022-09-07T02:15:40.701Z,4.87
2022-09-07T02:18:12.870Z,5.08
2022-09-07T02:20:48.771Z,5.11
2022-09-07T02:23:24.927Z,5.07
2022-09-07T02:26:04.320Z,5.16
2022-09-07T02:28:38.295Z,5.02
2022-09-07T02:31:06.999Z,5.13
2022-09-07T02:33:35.473Z,5.15
2022-09-07T02:36:05.068Z,4.58
2022-09-07T02:38:35.088Z,4.69
2022-09-07T02:41:05.280Z,4.91
2022-09-07T02:43:33.269Z,4.48
2022-09-07T02:46:21.958Z,5.03
2022-09-07T02:48:58.522Z,4.81
2022-09-07T02:52:09.839Z,5.05
2022-09-07T02:55:27.220Z,4.90
2022-09-07T02:58:46.341Z,5.00
2022-09-07T03:01:44.963Z,4.67
2022-09-07T03:04:27.659Z,4.58
2022-09-07T03:07:28.391Z,4.66
2022-09-07T03:10:00.027Z,4.82
2022-09-07T03:12:47.505Z,4.52
2022-09-07T03:15:22.830Z,4.51
2022-09-07T03:17:51.259Z,4.25
2022-09-07T03:20:20.793Z,4.48
2022-09-07T03:22:52.263Z,4.71
2022-09-07T03:25:20.219Z,4.58
2022-09-07T03:27:47.795Z,4.72
2022-09-07T03:30:15.524Z,4.41
2022-09-07T03:32:43.413Z,4.30
2022-09-07T03:35:14.338Z,4.42
2022-09-07T03:37:42.115Z,4.37
2022-09-07T03:40:13.588Z,4.58
2022-09-07T03:42:42.714Z,4.79
2022-09-07T03:45:11.357Z,4.72
2022-09-07T03:47:39.773Z,4.82
2022-09-07T03:50:08.071Z,4.34
2022-09-07T03:52:37.137Z,4.48
2022-09-07T03:55:05.783Z,3.98
2022-09-07T03:57:33.443Z,4.54
2022-09-07T04:00:03.831Z,4.43
2022-09-07T04:02:40.791Z,4.53
2022-09-07T04:05:09.334Z,4.52
2022-09-07T04:07:36.909Z,4.57
2022-09-07T04:10:04.714Z,4.22
2022-09-07T04:12:32.644Z,4.54
2022-09-07T04:15:00.293Z,4.60
2022-09-07T04:17:28.034Z,4.47
2022-09-07T04:19:55.908Z,4.52
2022-09-07T04:22:23.500Z,4.52
2022-09-07T04:24:51.081Z,4.73
2022-09-07T04:27:18.889Z,4.38
2022-09-07T04:29:47.985Z,4.56
2022-09-07T04:32:16.089Z,4.58
2022-09-07T04:34:44.036Z,4.74
2022-09-07T04:37:12.729Z,4.90
2022-09-07T04:39:40.519Z,4.73
2022-09-07T04:42:08.564Z,5.03
2022-09-07T04:44:36.326Z,5.13
2022-09-07T04:47:04.044Z,5.20
2022-09-07T04:49:31.855Z,5.31
2022-09-07T04:51:59.559Z,5.36
2022-09-07T04:54:27.354Z,5.38
2022-09-07T04:56:55.182Z,5.23
2022-09-07T04:59:23.156Z,5.23
2022-09-07T05:01:50.732Z,5.35
2022-09-07T05:04:18.608Z,5.56
2022-09-07T05:06:46.211Z,5.70
2022-09-07T05:09:13.802Z,5.81
2022-09-07T05:11:41.674Z,5.91
2022-09-07T05:14:11.088Z,6.08
2022-09-07T05:16:38.955Z,6.20
2022-09-07T05:19:06.939Z,6.39
2022-09-07T05:21:35.315Z,6.50
2022-09-07T05:24:04.438Z,6.65
2022-09-07T05:26:36.541Z,6.96
2022-09-07T05:31:54.911Z,7.19
2022-09-07T05:34:30.988Z,7.17
2022-09-07T05:37:00.004Z,7.30
2022-09-07T05:39:28.923Z,7.45
2022-09-07T05:41:56.994Z,8.09
2022-09-07T05:47:08.835Z,8.20
2022-09-07T05:49:37.598Z,8.41
2022-09-07T05:52:05.433Z,8.49
2022-09-07T05:54:32.987Z,8.38
2022-09-07T05:57:03.016Z,8.27
2022-09-07T05:59:30.779Z,8.43
2022-09-07T06:01:58.514Z,8.69
2022-09-07T06:04:26.372Z,8.73
2022-09-07T06:12:30.360Z,9.25
2022-09-07T06:14:58.483Z,9.20
2022-09-07T06:17:26.287Z,9.48
2022-09-07T06:19:54.908Z,9.32
2022-09-07T06:22:24.419Z,9.71
2022-09-07T06:24:53.583Z,9.33
2022-09-07T06:27:21.401Z,9.39
2022-09-07T06:29:49.548Z,9.96
2022-09-07T06:35:05.700Z,9.98
2022-09-07T06:37:33.474Z,10.70
2022-09-07T06:40:01.319Z,11.16
2022-09-07T06:42:29.526Z,11.06
2022-09-07T06:44:59.043Z,11.41
2022-09-07T06:47:26.695Z,10.78
2022-09-07T06:49:54.704Z,11.42
2022-09-07T06:52:22.911Z,11.54
2022-09-07T06:57:27.287Z,11.82
2022-09-07T06:59:55.290Z,11.24
2022-09-07T07:02:23.014Z,11.92
2022-09-07T07:04:51.104Z,12.42
2022-09-07T07:07:18.911Z,12.65
2022-09-07T07:09:46.717Z,12.17
2022-09-07T07:14:45.174Z,12.45
2022-09-07T07:17:13.766Z,12.67
2022-09-07T07:19:41.765Z,12.85
2022-09-07T07:24:57.518Z,12.95
2022-09-07T07:27:25.261Z,13.37
2022-09-07T07:29:53.994Z,13.24
2022-09-07T07:32:22.054Z,13.47
2022-09-07T07:34:49.903Z,13.16
2022-09-07T07:37:17.654Z,13.65
2022-09-07T07:42:34.127Z,14.03
2022-09-07T07:47:54.755Z,14.46
2022-09-07T07:50:30.967Z,14.64
2022-09-07T07:55:48.011Z,14.76
2022-09-07T07:58:16.043Z,14.66
2022-09-07T08:00:54.451Z,14.99
2022-09-07T08:03:25.006Z,15.27
2022-09-07T08:05:54.455Z,15.17
2022-09-07T08:08:23.939Z,15.45
2022-09-07T08:10:52.298Z,15.62
2022-09-07T08:13:21.532Z,15.54
2022-09-07T08:15:49.501Z,15.52
2022-09-07T08:18:17.764Z,15.82
2022-09-07T08:20:45.282Z,15.92
2022-09-07T08:23:12.886Z,15.75
2022-09-07T08:25:54.741Z,15.95
2022-09-07T08:28:23.622Z,16.10
2022-09-07T08:30:52.161Z,16.31
2022-09-07T08:33:20.122Z,15.87
2022-09-07T08:36:03.267Z,15.87
2022-09-07T08:38:33.533Z,16.32
2022-09-07T08:41:17.019Z,16.41
2022-09-07T08:44:00.798Z,16.55
2022-09-07T08:46:44.063Z,17.08
2022-09-07T08:49:48.825Z,16.95
2022-09-07T08:52:29.187Z,17.19
2022-09-07T08:55:15.447Z,17.90
2022-09-07T08:57:54.129Z,17.35
2022-09-07T09:00:22.606Z,17.80
2022-09-07T09:05:47.744Z,17.95
2022-09-07T09:08:41.102Z,18.16
2022-09-07T09:11:27.346Z,17.68
2022-09-07T09:14:13.013Z,17.96
2022-09-07T09:16:58.820Z,17.88
2022-09-07T09:20:24.236Z,18.00
2022-09-07T09:23:00.860Z,17.88
2022-09-07T09:25:47.211Z,18.54
2022-09-07T09:28:15.766Z,18.03
2022-09-07T09:30:43.655Z,18.61
2022-09-07T09:33:25.933Z,18.47
2022-09-07T09:36:00.869Z,18.23
2022-09-07T09:38:40.628Z,18.71
2022-09-07T09:41:12.558Z,18.48
2022-09-07T09:43:55.616Z,18.77
2022-09-07T09:46:29.193Z,18.34
2022-09-07T09:48:59.797Z,19.20
2022-09-07T09:54:33.282Z,19.45
2022-09-07T09:57:01.349Z,19.72
2022-09-07T10:05:33.806Z,19.91
2022-09-07T10:08:02.806Z,19.59
2022-09-07T10:10:31.616Z,19.98
2022-09-07T10:12:59.927Z,19.94
2022-09-07T10:15:40.626Z,19.22
2022-09-07T10:18:25.979Z,20.18
2022-09-07T10:20:53.756Z,19.97
2022-09-07T10:23:27.646Z,19.67
2022-09-07T10:25:55.193Z,19.53
2022-09-07T10:29:06.006Z,20.22
2022-09-07T10:31:32.012Z,19.94
2022-09-07T10:34:26.746Z,19.62
2022-09-07T10:37:44.395Z,18.73
2022-09-07T10:40:12.644Z,20.22
2022-09-07T10:49:30.159Z,20.22
2022-09-07T10:52:13.955Z,20.35
2022-09-07T10:54:55.211Z,20.91
2022-09-07T10:57:51.816Z,20.60
2022-09-07T11:00:22.859Z,21.05
2022-09-07T11:03:28.297Z,20.46
2022-09-07T11:06:01.961Z,21.40
2022-09-07T11:12:02.986Z,21.62
2022-09-07T11:14:47.373Z,21.13
2022-09-07T11:17:24.772Z,21.02
2022-09-07T11:19:58.686Z,19.66
2022-09-07T11:22:43.219Z,20.74
2022-09-07T11:25:41.734Z,20.30
2022-09-07T11:28:24.200Z,21.23
2022-09-07T11:31:00.661Z,20.46
2022-09-07T11:37:08.058Z,19.76
2022-09-07T11:40:06.672Z,21.27
2022-09-07T11:42:49.343Z,21.80
2022-09-07T11:45:41.599Z,20.82
2022-09-07T11:48:30.408Z,21.89
2022-09-07T11:51:27.389Z,21.67
2022-09-07T11:54:07.183Z,21.75
2022-09-07T11:56:45.691Z,21.87
2022-09-07T12:00:01.131Z,22.03
2022-09-07T12:03:06.630Z,20.55
2022-09-07T12:06:01.321Z,21.61
2022-09-07T12:09:01.876Z,21.95
2022-09-07T12:12:07.255Z,21.06
2022-09-07T12:15:09.922Z,22.12
2022-09-07T12:18:05.144Z,21.48
2022-09-07T12:20:46.175Z,21.01
2022-09-07T12:23:16.729Z,20.97
2022-09-07T12:25:50.401Z,21.78
2022-09-07T12:28:23.805Z,22.60
2022-09-07T12:31:04.863Z,22.33
2022-09-07T12:33:36.936Z,20.73
2022-09-07T12:36:27.460Z,20.73
2022-09-07T12:39:32.989Z,20.68
2022-09-07T12:45:39.523Z,22.00
2022-09-07T12:48:15.590Z,22.40
2022-09-07T12:51:58.983Z,21.34
2022-09-07T12:54:22.157Z,21.74
2022-09-07T12:57:31.151Z,22.19
2022-09-07T13:00:32.192Z,22.32
2022-09-07T13:07:04.583Z,21.03
2022-09-07T13:09:38.800Z,21.95
2022-09-07T13:12:57.393Z,22.81
2022-09-07T13:16:13.833Z,22.47
2022-09-07T13:18:46.497Z,22.68
2022-09-07T13:21:15.639Z,22.53
2022-09-07T13:27:03.229Z,21.84
2022-09-07T13:29:30.800Z,21.31
2022-09-07T13:32:20.222Z,21.50
2022-09-07T13:35:05.735Z,21.08
2022-09-07T13:37:55.951Z,20.25
2022-09-07T13:40:52.480Z,20.05
2022-09-07T13:43:24.759Z,20.09
2022-09-07T13:45:55.699Z,19.74
2022-09-07T13:48:35.634Z,20.12
2022-09-07T13:51:15.700Z,20.36
2022-09-07T13:54:15.418Z,20.44
2022-09-07T13:56:55.950Z,19.90
2022-09-07T13:59:33.925Z,20.21
2022-09-07T14:02:02.264Z,19.95
2022-09-07T14:04:44.592Z,20.30
2022-09-07T14:07:24.068Z,19.90
2022-09-07T14:10:22.418Z,20.45
2022-09-07T14:12:55.381Z,21.02
2022-09-07T14:15:58.987Z,21.01
2022-09-07T14:18:32.292Z,21.99
2022-09-07T14:21:00.313Z,21.96
2022-09-07T14:23:31.659Z,22.59
2022-09-07T14:26:22.074Z,21.94
2022-09-07T14:28:54.041Z,21.15
2022-09-07T14:31:25.335Z,21.31
2022-09-07T14:34:00.746Z,21.25
2022-09-07T14:36:44.757Z,21.37
2022-09-07T14:39:18.166Z,20.91
2022-09-07T14:41:47.360Z,20.04
2022-09-07T14:44:39.200Z,20.78
2022-09-07T14:47:40.729Z,20.07
2022-09-07T14:50:28.676Z,19.76
2022-09-07T14:55:47.161Z,18.41
2022-09-07T14:58:14.542Z,18.88
2022-09-07T15:03:41.664Z,18.29
2022-09-07T15:07:01.024Z,18.28
2022-09-07T15:08:59.031Z,17.81
2022-09-07T15:11:33.898Z,18.32
2022-09-07T15:14:20.531Z,18.32
2022-09-07T15:19:50.468Z,18.50
2022-09-07T15:22:19.356Z,18.90
2022-09-07T15:24:48.569Z,18.59
2022-09-07T15:27:29.778Z,18.30
2022-09-07T15:29:57.536Z,18.40
2022-09-07T15:32:25.343Z,19.00
2022-09-07T15:34:52.940Z,18.48
2022-09-07T15:40:22.616Z,18.38
2022-09-07T15:43:16.785Z,18.46
2022-09-07T15:45:39.829Z,17.89
2022-09-07T15:48:08.439Z,17.52
2022-09-07T15:50:36.809Z,17.40
2022-09-07T15:53:04.976Z,17.60
2022-09-07T15:55:37.045Z,17.15
2022-09-07T15:58:11.927Z,17.11
2022-09-07T16:00:40.516Z,16.90
2022-09-07T16:03:09.165Z,16.77
2022-09-07T16:05:44.260Z,16.89
2022-09-07T16:11:23.838Z,16.59
2022-09-07T16:14:01.684Z,16.21
2022-09-07T16:19:21.138Z,16.51
2022-09-07T16:21:48.982Z,16.04
2022-09-07T16:24:17.504Z,16.12
2022-09-07T16:26:45.384Z,15.96
2022-09-07T16:29:13.289Z,15.88
2022-09-07T16:32:43.947Z,15.65
2022-09-07T16:34:29.866Z,15.87
2022-09-07T16:36:58.158Z,15.93
2022-09-07T16:39:26.136Z,16.49
2022-09-07T16:41:54.829Z,15.99
2022-09-07T16:44:22.938Z,15.67
2022-09-07T16:46:50.800Z,15.50
2022-09-07T16:49:19.706Z,15.31
2022-09-07T16:51:47.472Z,14.97
2022-09-07T16:54:15.839Z,15.17
2022-09-07T16:56:43.849Z,15.18
2022-09-07T16:59:19.689Z,15.01
2022-09-07T17:01:48.680Z,15.02
2022-09-07T17:04:16.451Z,14.85
2022-09-07T17:06:44.561Z,14.67
2022-09-07T17:09:14.488Z,14.75
2022-09-07T17:11:42.632Z,14.76
2022-09-07T17:14:10.666Z,14.73
2022-09-07T17:16:41.059Z,14.24
2022-09-07T17:22:04.202Z,14.03
2022-09-07T17:24:32.527Z,13.89
2022-09-07T17:27:01.373Z,14.03
2022-09-07T17:29:33.008Z,13.93
2022-09-07T17:34:51.359Z,13.82
2022-09-07T17:37:19.554Z,13.88
2022-09-07T17:39:47.272Z,13.96
2022-09-07T17:42:15.515Z,13.72
2022-09-07T17:44:43.607Z,13.60
2022-09-07T17:47:11.593Z,13.49
2022-09-07T17:49:39.985Z,13.54
2022-09-07T17:52:07.884Z,13.03
2022-09-07T17:54:35.956Z,13.30
2022-09-07T17:57:05.312Z,13.21
2022-09-07T18:02:23.244Z,13.08
2022-09-07T18:04:52.111Z,12.93
2022-09-07T18:07:20.547Z,12.66
2022-09-07T18:09:49.551Z,12.73
2022-09-07T18:12:17.941Z,12.48
2022-09-07T18:14:46.603Z,12.43
2022-09-07T18:17:15.364Z,12.25
2022-09-07T18:19:44.007Z,12.37
2022-09-07T18:22:12.554Z,12.40
2022-09-07T18:24:40.995Z,12.27
2022-09-07T18:27:09.872Z,12.15
2022-09-07T18:29:39.816Z,12.34
2022-09-07T18:32:10.204Z,12.33
2022-09-07T18:34:41.557Z,12.36
2022-09-07T18:37:12.450Z,12.42
2022-09-07T18:39:41.039Z,12.60
2022-09-07T18:42:09.818Z,12.44
2022-09-07T18:47:29.213Z,12.19
2022-09-07T18:49:58.744Z,12.26
2022-09-07T18:55:17.240Z,11.71
2022-09-07T18:57:45.448Z,11.62
2022-09-07T19:00:14.156Z,11.62
2022-09-07T19:02:42.599Z,11.69
2022-09-07T19:07:59.828Z,11.44
2022-09-07T19:10:27.609Z,10.91
2022-09-07T19:12:56.404Z,11.15
2022-09-07T19:15:24.481Z,11.08
2022-09-07T19:17:52.535Z,11.09
2022-09-07T19:20:20.783Z,10.82
2022-09-07T19:22:48.883Z,11.10
2022-09-07T19:25:17.495Z,10.94
2022-09-07T19:27:45.811Z,11.17
2022-09-07T19:30:15.645Z,11.29
2022-09-07T19:32:44.309Z,10.96
2022-09-07T19:35:14.409Z,11.29
2022-09-07T19:37:42.697Z,10.91
2022-09-07T19:40:14.791Z,10.76
2022-09-07T19:42:46.756Z,10.70
2022-09-07T19:45:15.677Z,10.20
2022-09-07T19:47:43.841Z,10.36
2022-09-07T19:50:12.368Z,10.47
2022-09-07T19:52:40.128Z,10.61
2022-09-07T19:55:08.557Z,10.65
2022-09-07T19:57:36.814Z,10.28
2022-09-07T20:00:06.086Z,10.40
2022-09-07T20:02:40.804Z,9.82
2022-09-07T20:05:09.178Z,10.08
2022-09-07T20:07:36.930Z,10.09
2022-09-07T20:10:05.948Z,10.00
2022-09-07T20:12:33.648Z,9.89
2022-09-07T20:15:01.730Z,10.15
2022-09-07T20:17:35.088Z,10.24
2022-09-07T20:20:05.227Z,9.94
2022-09-07T20:22:33.334Z,10.08
2022-09-07T20:25:01.389Z,9.87
2022-09-07T20:27:30.782Z,9.73
2022-09-07T20:29:58.875Z,9.89
2022-09-07T20:32:28.451Z,9.98
2022-09-07T20:34:56.954Z,9.97
2022-09-07T20:37:28.849Z,9.92
2022-09-07T20:39:56.647Z,9.81
2022-09-07T20:42:26.866Z,9.75
2022-09-07T20:44:55.144Z,9.14
2022-09-07T20:47:24.155Z,9.18
2022-09-07T20:49:52.309Z,9.16
2022-09-07T20:52:20.402Z,9.50
2022-09-07T20:54:48.137Z,9.52
2022-09-07T20:57:16.522Z,9.02
2022-09-07T20:59:44.708Z,9.30
2022-09-07T21:02:12.495Z,9.27
2022-09-07T21:04:40.359Z,9.06
2022-09-07T21:07:08.436Z,9.17
2022-09-07T21:09:36.509Z,9.50
2022-09-07T21:12:04.455Z,9.54
2022-09-07T21:14:32.882Z,9.31
2022-09-07T21:17:00.521Z,9.33
2022-09-07T21:19:28.212Z,9.16
2022-09-07T21:21:56.449Z,8.84
2022-09-07T21:24:24.618Z,9.31
2022-09-07T21:26:52.490Z,9.21
2022-09-07T21:29:24.256Z,9.11
2022-09-07T21:31:56.077Z,9.16
2022-09-07T21:34:24.474Z,9.15
2022-09-07T21:36:53.415Z,8.51
2022-09-07T21:39:22.333Z,8.92
2022-09-07T21:41:50.246Z,8.87
2022-09-07T21:44:17.989Z,9.06
2022-09-07T21:46:46.115Z,8.94
2022-09-07T21:49:14.528Z,8.78
2022-09-07T21:51:42.215Z,8.64
2022-09-07T21:54:10.051Z,8.82
2022-09-07T21:56:37.874Z,8.77
2022-09-07T21:59:06.647Z,8.29
2022-09-07T22:01:34.715Z,8.53
2022-09-07T22:04:07.098Z,8.54
2022-09-07T22:06:35.127Z,8.51
2022-09-07T22:09:05.229Z,8.45
2022-09-07T22:11:33.320Z,8.53
2022-09-07T22:14:03.144Z,8.55
2022-09-07T22:16:33.139Z,8.06
2022-09-07T22:19:02.372Z,8.36
2022-09-07T22:21:30.992Z,8.01
2022-09-07T22:24:02.354Z,7.96
2022-09-07T22:26:37.734Z,8.48
2022-09-07T22:29:08.579Z,8.16
2022-09-07T22:31:38.862Z,8.34
2022-09-07T22:34:09.508Z,8.19
2022-09-07T22:36:44.472Z,8.37
2022-09-07T22:39:17.455Z,7.76
2022-09-07T22:41:47.435Z,7.93
2022-09-07T22:44:18.175Z,8.26
2022-09-07T22:46:48.074Z,8.18
2022-09-07T22:49:17.541Z,8.12
2022-09-07T22:51:51.692Z,7.91
2022-09-07T22:54:19.806Z,8.02
2022-09-07T22:56:47.466Z,8.06
2022-09-07T22:59:15.274Z,8.28
2022-09-07T23:01:43.614Z,8.17
2022-09-07T23:04:13.359Z,8.03
2022-09-07T23:06:43.357Z,8.20
2022-09-07T23:09:15.207Z,8.32
2022-09-07T23:11:43.565Z,8.21
2022-09-07T23:14:17.951Z,8.21
2022-09-07T23:16:46.197Z,8.10
2022-09-07T23:19:15.847Z,7.68
2022-09-07T23:21:44.461Z,7.80
2022-09-07T23:24:19.360Z,7.86
2022-09-07T23:26:47.304Z,8.19
2022-09-07T23:29:17.201Z,8.18
2022-09-07T23:31:46.990Z,8.08
2022-09-07T23:34:15.896Z,7.59
2022-09-07T23:36:43.708Z,8.04
2022-09-07T23:39:11.396Z,7.99
2022-09-07T23:41:38.909Z,7.63
2022-09-07T23:44:06.823Z,7.50
2022-09-07T23:46:34.700Z,7.77
2022-09-07T23:49:02.372Z,7.65
2022-09-07T23:51:30.082Z,7.71
2022-09-07T23:53:57.577Z,7.30
2022-09-07T23:56:25.264Z,7.20
2022-09-07T23:58:53.120Z,7.21
